Neiafu, Tonga

5:07 PM TOT on September 05, 2015 (GMT +1300)
Cafe Tropicana, Fatafehi Rd, Neiafu, vava'u, Tonga | | Change Station
CLOSE
Current Station
Personal Weather Station
Location: Neiafu, VAVAU
Elevation: 23 ft
Nearby Weather Stations

Elev 23 ft 18.65 °S, 173.98 °W | Updated 19 seconds ago

Partly Cloudy
Partly Cloudy
79.0 °F
Feels Like 81 °F
N
2.5
Wind Variable Wind from ENE
Gusts 4.9 mph

Today
High -- | Low -- °F
--% Chance of Precip.
Yesterday
High -- | Low -- °F
Precip. -- in
6:40 AM 6:29 PM
Waning Gibbous, 53% visible
Pressure 29.98 in
Visibility 6.2 miles
Clouds Few 1800 ft
Heat Index 81 °F
Dew Point 66 °F
Humidity 64%
Rainfall 0.00 in
Snow Depth Not available.
UV 1.0 out of 12
Pollen Not available.
Air Quality Not available.
Flu Activity Not available.
METAR NFTV 050400Z 05008KT 9999 FEW018 26/19 Q1015
Pressure 29.98 in
Visibility 6.2 miles
Clouds Few 1800 ft
Heat Index 81 °F
Dew Point 66 °F
Humidity 64%
Rainfall 0.00 in
Snow Depth Not available.
UV 1.0 out of 12
Pollen Not available.
Air Quality Not available.
Flu Activity Not available.
METAR NFTV 050400Z 05008KT 9999 FEW018 26/19 Q1015

10-Day Weather Forecast

×

Almanac

Astronomy

Sep. 05, 2015 Rise Set
Actual Time
Civil Twilight
Nautical Twilight
Astronomical Twilight
Moon
Length of Visible Light
Length of Day
Tomorrow will be .
, % of the Moon is Illuminated

Today's Extremes

Country Highs Country Lows

Community

WunderPhotos

Upload Photos

1,852,418 photos uploaded!

WunderBlogs® & News

Nearby

Air Quality

  Air Quality AQ Index Pollutant
Not available.

Snow Depth

Station Depth Elevation

Earthquake Activity

City Distance Mag. Time & Date
Minimum magnitude displayed is 2.5.

Coastal Water Temperatures

Place Temperature

Stations

Nearby Weather Stations

Station Location Temp. Windchill Dew Point Humidity Wind Precip. Elev Updated Type